Time;durP1;ratioP1;P1;durP2;ratioP2;P2;SDS_P1;SDS_P2;PMS_P1;PMS_P2;Temp;Humidity;BMP_temperature;BMP_pressure;BME280_temperature;BME280_humidity;BME280_pressure;Samples;Min_cycle;Max_cycle;Signal;HPM_P1;HPM_P2
2023/12/25 00:04:39;;;;;;;104.53;98.97;;;6.80;87.50;;;;;;12655787;28;20039;-74
2023/12/25 00:10:40;;;;;;;39.55;36.33;;;6.80;87.50;;;;;;12638472;28;20047;-75
2023/12/25 00:16:42;;;;;;;51.17;46.80;;;6.80;87.50;;;;;;12655925;28;20336;-75
2023/12/25 00:22:43;;;;;;;122.18;115.72;;;6.80;87.50;;;;;;12671631;28;20047;-74
2023/12/25 00:28:45;;;;;;;110.82;104.72;;;6.80;87.40;;;;;;12637231;28;20035;-75
2023/12/25 00:34:47;;;;;;;30.38;27.77;;;6.70;87.30;;;;;;12637178;28;20352;-75
2023/12/25 00:40:48;;;;;;;31.60;28.55;;;6.70;87.40;;;;;;12654969;28;20032;-75
2023/12/25 00:46:50;;;;;;;34.55;31.50;;;6.70;87.40;;;;;;12636750;28;20043;-75
2023/12/25 00:52:51;;;;;;;53.42;48.60;;;6.70;87.40;;;;;;12654539;28;20031;-75
2023/12/25 00:58:53;;;;;;;81.30;77.05;;;6.70;87.30;;;;;;12653102;28;20036;-75
2023/12/25 01:04:55;;;;;;;24.45;22.08;;;6.60;87.40;;;;;;12654157;28;20451;-75
2023/12/25 01:10:56;;;;;;;28.80;18.95;;;6.50;87.40;;;;;;12655803;28;20039;-75
2023/12/25 01:16:58;;;;;;;17.30;15.48;;;6.50;87.30;;;;;;12652573;28;20059;-75
2023/12/25 01:23:00;;;;;;;23.00;20.63;;;6.50;87.40;;;;;;12670541;28;20027;-75
2023/12/25 01:29:02;;;;;;;46.85;42.38;;;6.40;87.30;;;;;;12670267;28;20421;-75
2023/12/25 01:35:05;;;;;;;20.23;13.63;;;6.30;87.30;;;;;;12668998;28;20024;-75
2023/12/25 01:41:06;;;;;;;20.98;18.98;;;6.20;87.30;;;;;;12652050;28;20032;-75
2023/12/25 01:47:08;;;;;;;17.98;16.00;;;6.20;87.30;;;;;;12669976;28;20032;-75
2023/12/25 01:53:10;;;;;;;24.15;20.08;;;6.10;87.30;;;;;;12651784;28;20028;-75
2023/12/25 01:59:12;;;;;;;30.55;25.50;;;6.00;87.30;;;;;;12651629;28;20036;-75
2023/12/25 02:05:14;;;;;;;19.85;16.52;;;6.00;87.30;;;;;;12651663;28;20502;-75
2023/12/25 02:11:15;;;;;;;30.90;26.73;;;5.90;87.20;;;;;;12669369;28;20336;-75
2023/12/25 02:17:17;;;;;;;20.10;17.85;;;5.80;87.20;;;;;;12651851;28;20456;-75
2023/12/25 02:23:22;;;;;;;19.88;17.60;;;5.90;87.30;;;;;;12647489;28;20348;-75
2023/12/25 02:29:23;;;;;;;16.17;14.00;;;5.90;87.30;;;;;;12661026;28;20040;-75
2023/12/25 02:35:25;;;;;;;38.15;35.58;;;5.90;87.20;;;;;;12676656;28;20353;-75
2023/12/25 02:41:27;;;;;;;20.52;18.45;;;6.00;87.30;;;;;;12643191;28;20031;-75
2023/12/25 02:47:28;;;;;;;60.60;57.10;;;6.20;87.10;;;;;;12660119;28;20028;-75
2023/12/25 02:53:31;;;;;;;29.73;26.92;;;6.30;86.90;;;;;;12658767;28;20318;-75
2023/12/25 02:59:33;;;;;;;58.25;54.50;;;6.30;86.70;;;;;;12659600;28;20353;-75
2023/12/25 03:05:34;;;;;;;28.17;25.83;;;6.50;86.60;;;;;;12659334;28;20024;-75
2023/12/25 03:11:36;;;;;;;34.45;31.30;;;6.50;86.30;;;;;;12640988;28;20035;-75
2023/12/25 03:17:37;;;;;;;45.80;42.38;;;6.50;86.50;;;;;;12641481;28;20020;-75
2023/12/25 03:23:39;;;;;;;85.25;80.35;;;6.60;86.30;;;;;;12658467;28;20024;-75
2023/12/25 03:29:40;;;;;;;56.17;52.60;;;6.30;86.20;;;;;;12658089;28;20475;-75
2023/12/25 03:35:42;;;;;;;94.15;88.80;;;6.40;86.50;;;;;;12657675;28;20024;-75
2023/12/25 03:41:44;;;;;;;53.88;49.90;;;6.70;86.20;;;;;;12657598;28;20038;-75
2023/12/25 03:47:45;;;;;;;42.60;38.85;;;6.90;86.00;;;;;;12657275;28;20035;-75
2023/12/25 03:53:47;;;;;;;53.67;49.95;;;6.90;85.80;;;;;;12657745;28;20024;-75
2023/12/25 03:59:49;;;;;;;42.67;39.42;;;7.00;85.50;;;;;;12656653;28;20040;-75
2023/12/25 04:05:50;;;;;;;72.15;67.65;;;7.00;85.20;;;;;;12656509;28;20451;-75
2023/12/25 04:11:52;;;;;;;122.22;115.97;;;7.00;85.30;;;;;;12654919;28;20326;-75
2023/12/25 04:17:56;;;;;;;42.05;38.65;;;6.90;85.10;;;;;;12637940;28;20326;-75
2023/12/25 04:24:00;;;;;;;121.10;114.85;;;6.70;85.60;;;;;;12655684;28;20042;-75
2023/12/25 04:30:02;;;;;;;55.60;51.78;;;7.00;85.60;;;;;;12654176;28;20353;-75
2023/12/25 04:36:05;;;;;;;41.80;38.10;;;6.70;85.20;;;;;;12655153;28;20024;-75
2023/12/25 04:42:07;;;;;;;39.30;36.13;;;6.70;85.60;;;;;;12654898;28;20035;-75
2023/12/25 04:48:09;;;;;;;56.03;52.35;;;7.00;85.40;;;;;;12654102;28;20326;-75
2023/12/25 04:54:10;;;;;;;59.75;55.28;;;7.20;84.80;;;;;;12636519;28;20433;-75
2023/12/25 05:00:13;;;;;;;65.75;61.03;;;7.30;84.40;;;;;;12636207;28;20040;-75
2023/12/25 05:06:14;;;;;;;157.20;148.90;;;7.40;84.20;;;;;;12636245;28;20032;-75
2023/12/25 05:12:16;;;;;;;111.97;105.68;;;7.50;84.10;;;;;;12620225;28;20048;-75
2023/12/25 05:18:18;;;;;;;91.88;86.43;;;7.60;83.80;;;;;;12654524;28;20031;-76
2023/12/25 05:24:19;;;;;;;166.13;157.38;;;7.50;83.80;;;;;;12669506;28;20028;-75
2023/12/25 05:30:21;;;;;;;55.15;51.10;;;7.10;83.80;;;;;;12653482;28;20032;-75
2023/12/25 05:36:23;;;;;;;68.53;63.72;;;7.20;84.60;;;;;;12653434;28;20428;-75
2023/12/25 05:42:24;;;;;;;130.88;123.93;;;7.20;84.30;;;;;;12653392;28;20036;-75
2023/12/25 05:48:26;;;;;;;141.82;134.65;;;7.20;83.80;;;;;;12653135;28;20035;-75
2023/12/25 05:54:27;;;;;;;42.85;39.45;;;6.90;84.30;;;;;;12653056;28;20425;-75
2023/12/25 06:00:29;;;;;;;53.35;49.55;;;7.00;84.60;;;;;;12658372;28;20059;-75
2023/12/25 06:06:31;;;;;;;54.22;50.35;;;7.20;84.50;;;;;;12662258;28;20032;-75
2023/12/25 06:12:32;;;;;;;80.53;75.88;;;7.40;84.60;;;;;;12661884;28;20035;-75
2023/12/25 06:18:34;;;;;;;142.50;135.32;;;7.60;84.40;;;;;;12660448;28;20035;-75
2023/12/25 06:24:35;;;;;;;161.98;153.93;;;7.70;84.00;;;;;;12677154;28;20028;-75
2023/12/25 06:30:37;;;;;;;167.50;159.27;;;7.70;84.00;;;;;;12660906;28;20036;-75
2023/12/25 06:36:38;;;;;;;167.40;159.27;;;7.70;83.80;;;;;;12660847;28;20351;-75
2023/12/25 06:42:40;;;;;;;77.25;72.55;;;7.70;83.70;;;;;;12642452;28;20032;-75
2023/12/25 06:48:42;;;;;;;86.57;81.50;;;7.50;83.70;;;;;;12642232;28;20436;-75
2023/12/25 06:54:43;;;;;;;161.88;154.07;;;7.60;84.10;;;;;;12659901;28;20028;-75
2023/12/25 07:00:45;;;;;;;68.07;63.70;;;7.60;83.70;;;;;;12664770;22;20410;-75
2023/12/25 07:06:47;;;;;;;71.53;66.25;;;7.40;83.80;;;;;;12659897;28;20075;-75
2023/12/25 07:12:50;;;;;;;174.60;165.77;;;7.40;83.90;;;;;;12658353;28;20042;-75
2023/12/25 07:18:53;;;;;;;178.20;169.20;;;7.50;83.70;;;;;;12658594;28;20392;-75
2023/12/25 07:24:55;;;;;;;69.30;64.47;;;7.50;83.60;;;;;;12658325;28;20040;-75
2023/12/25 07:30:57;;;;;;;139.93;132.80;;;7.50;83.50;;;;;;12640095;28;20051;-75
2023/12/25 07:36:59;;;;;;;69.68;64.32;;;7.50;83.70;;;;;;12658523;28;20024;-75
2023/12/25 07:43:01;;;;;;;67.05;62.58;;;7.30;83.90;;;;;;12657513;28;20024;-75
2023/12/25 07:49:02;;;;;;;120.80;113.95;;;7.60;84.20;;;;;;12657225;28;20040;-75
2023/12/25 07:55:04;;;;;;;101.18;95.00;;;7.70;83.90;;;;;;12656875;28;20032;-75
2023/12/25 08:01:06;;;;;;;154.63;147.15;;;7.90;84.00;;;;;;12656684;28;20039;-75
2023/12/25 08:07:10;;;;;;;145.38;137.88;;;8.20;83.80;;;;;;12638236;28;20028;-75
2023/12/25 08:13:19;;;;;;;132.15;125.30;;;8.20;83.60;;;;;;12638012;28;20039;-75
2023/12/25 08:19:23;;;;;;;115.35;108.97;;;8.30;83.80;;;;;;12655628;28;20027;-75
2023/12/25 08:25:24;;;;;;;172.18;163.07;;;8.50;83.60;;;;;;12654944;28;20032;-75
2023/12/25 08:31:27;;;;;;;102.43;96.32;;;8.50;83.70;;;;;;12655289;28;20035;-75
2023/12/25 08:37:33;;;;;;;87.97;82.45;;;8.60;83.70;;;;;;12654981;28;20028;-74
2023/12/25 08:43:35;;;;;;;78.00;73.43;;;8.70;83.70;;;;;;12654888;28;20021;-74
2023/12/25 08:49:47;;;;;;;149.18;141.50;;;8.50;83.70;;;;;;12654496;28;20444;-74
2023/12/25 08:55:49;;;;;;;162.52;153.95;;;8.60;84.30;;;;;;12636253;28;20035;-74
2023/12/25 09:01:51;;;;;;;58.97;53.97;;;8.50;84.40;;;;;;12654477;28;20036;-74
2023/12/25 09:07:52;;;;;;;48.85;44.53;;;8.70;84.90;;;;;;12654034;28;20359;-74
2023/12/25 09:13:54;;;;;;;61.42;56.80;;;9.00;84.60;;;;;;12653846;28;20035;-74
2023/12/25 09:20:06;;;;;;;47.22;42.75;;;9.00;84.40;;;;;;12653953;28;20028;-74
2023/12/25 09:26:08;;;;;;;35.63;32.08;;;9.00;85.00;;;;;;12635679;28;20045;-71
2023/12/25 09:32:09;;;;;;;44.53;40.90;;;8.90;85.00;;;;;;12637570;28;20036;-71
2023/12/25 09:38:11;;;;;;;96.85;90.50;;;8.70;85.50;;;;;;12663579;28;20032;-71
2023/12/25 09:44:23;;;;;;;32.72;29.40;;;8.80;85.90;;;;;;12645975;28;20024;-72
2023/12/25 09:50:26;;;;;;;31.58;28.38;;;9.10;85.90;;;;;;12662821;28;20448;-72
2023/12/25 09:56:29;;;;;;;40.42;36.53;;;9.20;85.80;;;;;;12662534;28;20036;-71
2023/12/25 10:02:36;;;;;;;36.97;33.42;;;9.70;85.90;;;;;;12662440;28;20044;-71
2023/12/25 10:08:42;;;;;;;36.38;32.78;;;10.00;85.50;;;;;;12661969;28;20035;-72
2023/12/25 10:14:47;;;;;;;34.47;28.08;;;10.30;85.30;;;;;;12643196;28;20047;-72
2023/12/25 10:20:57;;;;;;;39.50;35.55;;;10.60;85.20;;;;;;12627551;28;20039;-72
2023/12/25 10:27:09;;;;;;;42.58;36.63;;;10.70;85.10;;;;;;12643784;28;20032;-72
2023/12/25 10:33:14;;;;;;;36.03;32.58;;;10.70;85.20;;;;;;12642989;28;20357;-72
2023/12/25 10:39:35;;;;;;;36.35;32.60;;;10.80;85.50;;;;;;12643389;28;20047;-72
2023/12/25 10:45:37;;;;;;;33.35;28.88;;;10.90;85.60;;;;;;12641367;28;20028;-72
2023/12/25 10:51:43;;;;;;;32.40;28.02;;;11.00;85.70;;;;;;12643143;28;20051;-72
2023/12/25 10:57:47;;;;;;;27.85;24.95;;;11.10;85.50;;;;;;12640964;28;20028;-72
2023/12/25 11:03:48;;;;;;;34.17;27.52;;;11.20;85.40;;;;;;12591851;28;20041;-72
2023/12/25 11:09:52;;;;;;;26.73;22.63;;;11.30;85.40;;;;;;12590953;28;20336;-72
2023/12/25 11:15:55;;;;;;;34.25;27.10;;;11.40;85.40;;;;;;12608747;28;20036;-72
2023/12/25 11:21:57;;;;;;;32.83;25.85;;;11.50;85.40;;;;;;12590725;28;20436;-72
2023/12/25 11:28:04;;;;;;;32.65;23.73;;;11.70;85.00;;;;;;12608004;28;20025;-72
2023/12/25 11:34:28;;;;;;;35.25;24.40;;;11.80;85.20;;;;;;12607844;28;20475;-72
2023/12/25 11:40:39;;;;;;;35.35;26.70;;;11.90;85.10;;;;;;12589972;28;20452;-72
2023/12/25 11:46:47;;;;;;;36.25;25.02;;;11.90;84.90;;;;;;12589492;28;20167;-71
2023/12/25 11:52:54;;;;;;;31.48;26.08;;;12.10;85.00;;;;;;12606712;28;20036;-72
2023/12/25 11:58:56;;;;;;;31.73;28.38;;;12.20;84.80;;;;;;12585893;28;20326;-72
2023/12/25 12:04:58;;;;;;;34.60;25.25;;;12.20;85.20;;;;;;12600498;28;20476;-72
2023/12/25 12:11:05;;;;;;;29.67;22.38;;;12.40;84.90;;;;;;12600095;28;20353;-72
2023/12/25 12:17:09;;;;;;;25.70;22.02;;;12.70;84.60;;;;;;12582074;28;20361;-72
2023/12/25 12:23:14;;;;;;;31.25;25.10;;;12.70;84.50;;;;;;12599500;28;20036;-72
2023/12/25 12:29:16;;;;;;;34.65;25.33;;;12.80;84.30;;;;;;12599110;28;20043;-72
2023/12/25 12:35:18;;;;;;;34.53;24.70;;;12.80;84.40;;;;;;12598861;28;20024;-72
2023/12/25 12:41:22;;;;;;;28.83;21.50;;;12.90;84.60;;;;;;12599805;28;20036;-73
2023/12/25 12:47:24;;;;;;;28.63;22.10;;;12.80;84.40;;;;;;12598632;28;20024;-72
2023/12/25 12:53:25;;;;;;;30.48;21.42;;;12.70;84.80;;;;;;12598436;28;20041;-73
2023/12/25 12:59:27;;;;;;;25.00;20.40;;;12.80;85.10;;;;;;12598336;28;20479;-72
2023/12/25 13:05:29;;;;;;;25.20;19.02;;;12.80;85.10;;;;;;12611361;28;20075;-72
2023/12/25 13:11:31;;;;;;;22.30;18.75;;;13.00;85.10;;;;;;12636170;28;20043;-72
2023/12/25 13:17:33;;;;;;;32.17;23.88;;;13.00;85.00;;;;;;12636666;28;20044;-72
2023/12/25 13:23:38;;;;;;;25.48;18.42;;;13.20;84.80;;;;;;12653418;28;20039;-73
2023/12/25 13:29:39;;;;;;;27.58;21.27;;;13.40;84.60;;;;;;12652522;28;20032;-72
2023/12/25 13:35:42;;;;;;;20.55;18.20;;;13.30;84.90;;;;;;12653518;28;20028;-72
2023/12/25 13:41:43;;;;;;;23.02;20.30;;;13.20;85.20;;;;;;12653287;28;20040;-72
2023/12/25 13:47:45;;;;;;;26.27;18.83;;;13.00;85.70;;;;;;12634129;28;20036;-71
2023/12/25 13:53:47;;;;;;;30.92;25.33;;;12.90;85.90;;;;;;12635168;28;20044;-72
2023/12/25 13:59:48;;;;;;;28.15;22.35;;;12.80;86.00;;;;;;12634512;28;20055;-71
2023/12/25 14:05:50;;;;;;;36.55;26.27;;;13.00;86.10;;;;;;12602050;28;20044;-71
2023/12/25 14:11:52;;;;;;;26.23;21.15;;;13.10;85.90;;;;;;12653350;28;20050;-73
2023/12/25 14:17:54;;;;;;;38.70;25.55;;;13.20;85.90;;;;;;12617934;28;20040;-73
2023/12/25 14:23:56;;;;;;;34.00;22.95;;;13.40;85.60;;;;;;12661262;28;20039;-72
2023/12/25 14:29:58;;;;;;;33.03;25.48;;;13.40;85.60;;;;;;12661160;28;20036;-73
2023/12/25 14:35:59;;;;;;;36.28;24.50;;;13.30;85.80;;;;;;12661191;28;20336;-73
2023/12/25 14:42:01;;;;;;;31.17;23.90;;;13.50;85.80;;;;;;12661117;28;20038;-73
2023/12/25 14:48:04;;;;;;;33.53;24.98;;;13.50;85.70;;;;;;12660903;28;20028;-73
2023/12/25 14:54:13;;;;;;;27.85;23.70;;;13.40;85.80;;;;;;12660536;28;20031;-73
2023/12/25 15:00:15;;;;;;;30.17;27.00;;;13.30;85.90;;;;;;12682231;22;20588;-71
2023/12/25 15:06:17;;;;;;;28.50;25.05;;;13.30;86.10;;;;;;12710011;28;20344;-71
2023/12/25 15:12:20;;;;;;;39.97;26.60;;;13.30;86.10;;;;;;12691212;28;20364;-71
2023/12/25 15:18:21;;;;;;;36.58;28.30;;;13.30;86.00;;;;;;12709520;28;20032;-70
2023/12/25 15:24:23;;;;;;;29.08;24.40;;;13.20;85.80;;;;;;12709387;28;20024;-71
2023/12/25 15:30:37;;;;;;;36.10;27.58;;;13.10;85.70;;;;;;12708629;28;20399;-71
2023/12/25 15:36:38;;;;;;;36.78;28.48;;;12.90;86.00;;;;;;12708804;28;20050;-71
2023/12/25 15:42:40;;;;;;;42.42;35.45;;;12.80;86.00;;;;;;12682222;27;20047;-71
2023/12/25 15:48:42;;;;;;;35.38;29.45;;;12.50;86.00;;;;;;12740877;27;20034;-71
2023/12/25 15:54:43;;;;;;;37.78;31.13;;;12.50;86.30;;;;;;12758915;27;20034;-70
2023/12/25 16:00:45;;;;;;;36.92;32.10;;;12.30;86.10;;;;;;12758630;27;20031;-71
2023/12/25 16:06:47;;;;;;;44.30;37.58;;;12.10;86.60;;;;;;12723832;27;20058;-71
2023/12/25 16:12:49;;;;;;;45.92;39.30;;;12.20;86.60;;;;;;12739701;27;20054;-70
2023/12/25 16:18:51;;;;;;;46.50;39.38;;;12.30;86.20;;;;;;12722700;27;20363;-73
2023/12/25 16:24:53;;;;;;;45.63;37.85;;;12.40;85.80;;;;;;12722308;27;20427;-73
2023/12/25 16:30:54;;;;;;;53.67;41.28;;;12.40;85.60;;;;;;12757113;27;20042;-73
2023/12/25 16:36:57;;;;;;;48.92;37.38;;;12.40;85.30;;;;;;12738586;27;20023;-73
2023/12/25 16:43:02;;;;;;;43.13;37.33;;;12.40;85.10;;;;;;12737772;27;20042;-73
2023/12/25 16:49:04;;;;;;;45.67;39.83;;;12.30;84.90;;;;;;12756463;27;20042;-73
2023/12/25 16:55:06;;;;;;;38.10;34.05;;;12.30;85.00;;;;;;12756143;27;20038;-73
2023/12/25 17:01:09;;;;;;;46.00;39.35;;;12.10;84.80;;;;;;12737748;27;20027;-73
2023/12/25 17:07:16;;;;;;;37.85;33.58;;;12.00;85.50;;;;;;12755879;27;20053;-73
2023/12/25 17:13:18;;;;;;;45.53;38.78;;;12.10;85.30;;;;;;12737167;27;20039;-73
2023/12/25 17:19:20;;;;;;;39.67;34.72;;;12.20;85.10;;;;;;12755641;28;20031;-71
2023/12/25 17:25:22;;;;;;;39.45;35.53;;;12.20;84.70;;;;;;12755541;28;20042;-71
2023/12/25 17:31:23;;;;;;;41.10;29.25;;;12.20;84.60;;;;;;12755191;28;20031;-71
2023/12/25 17:37:25;;;;;;;34.25;28.98;;;12.20;84.60;;;;;;12755198;28;20030;-71
2023/12/25 17:43:29;;;;;;;36.70;33.08;;;11.70;84.80;;;;;;12755058;28;20035;-71
2023/12/25 17:49:34;;;;;;;54.45;48.65;;;11.20;85.60;;;;;;12737225;28;20035;-73
2023/12/25 17:55:36;;;;;;;49.50;45.03;;;11.10;86.20;;;;;;12698955;27;20043;-73
2023/12/25 18:01:38;;;;;;;47.92;43.25;;;11.30;85.80;;;;;;12664446;28;20039;-73
2023/12/25 18:07:41;;;;;;;53.28;47.58;;;11.50;85.50;;;;;;12696057;28;20447;-73
2023/12/25 18:13:44;;;;;;;64.32;58.70;;;11.50;85.20;;;;;;12695065;28;20032;-71
2023/12/25 18:19:46;;;;;;;49.42;44.78;;;11.50;85.00;;;;;;12661745;28;20040;-71
2023/12/25 18:25:48;;;;;;;56.58;51.40;;;11.50;84.80;;;;;;12694521;28;20046;-71
2023/12/25 18:31:50;;;;;;;53.67;48.42;;;11.50;84.70;;;;;;12677996;28;20040;-71
2023/12/25 18:37:52;;;;;;;63.22;58.03;;;11.20;85.00;;;;;;12711669;28;20040;-71
2023/12/25 18:43:54;;;;;;;63.42;57.88;;;11.10;85.00;;;;;;12711575;28;20347;-71
2023/12/25 18:49:55;;;;;;;58.65;53.42;;;11.10;85.00;;;;;;12711372;28;20034;-73
2023/12/25 18:55:57;;;;;;;57.72;52.35;;;11.20;84.70;;;;;;12710772;28;20352;-73
2023/12/25 19:01:58;;;;;;;49.10;44.13;;;11.20;84.60;;;;;;12675858;28;20048;-73
2023/12/25 19:08:00;;;;;;;52.17;47.03;;;11.20;84.50;;;;;;12708184;28;20035;-71
2023/12/25 19:14:03;;;;;;;54.25;49.00;;;11.10;84.40;;;;;;12674607;28;20066;-71
2023/12/25 19:20:26;;;;;;;72.22;65.57;;;11.10;84.70;;;;;;12691620;28;20443;-71
2023/12/25 19:26:28;;;;;;;75.05;68.60;;;11.00;84.60;;;;;;12709367;28;20031;-71
2023/12/25 19:32:30;;;;;;;61.75;56.58;;;11.00;84.60;;;;;;12691566;28;20046;-73
2023/12/25 19:38:50;;;;;;;46.45;41.58;;;11.00;84.40;;;;;;12708760;28;20028;-73
2023/12/25 19:44:54;;;;;;;48.00;43.92;;;10.90;84.40;;;;;;12708487;28;20031;-73
2023/12/25 19:51:04;;;;;;;38.13;34.38;;;10.90;84.20;;;;;;12708171;28;20355;-73
2023/12/25 19:57:06;;;;;;;39.53;34.78;;;10.50;84.50;;;;;;12707804;28;20035;-73
2023/12/25 20:03:08;;;;;;;44.97;40.50;;;10.10;85.10;;;;;;12707553;28;20039;-73
2023/12/25 20:09:12;;;;;;;46.33;41.88;;;10.00;85.60;;;;;;12688964;28;20340;-73
2023/12/25 20:15:14;;;;;;;41.92;37.75;;;10.20;85.40;;;;;;12688678;28;20470;-71
2023/12/25 20:21:35;;;;;;;56.55;51.17;;;10.00;85.30;;;;;;12671133;28;20044;-71
2023/12/25 20:27:37;;;;;;;55.72;49.75;;;9.80;85.60;;;;;;12706539;28;20039;-71
2023/12/25 20:33:42;;;;;;;52.70;47.58;;;10.00;85.70;;;;;;12706162;28;20035;-71
2023/12/25 20:39:44;;;;;;;62.10;56.25;;;9.90;85.60;;;;;;12705984;28;20034;-71
2023/12/25 20:45:46;;;;;;;55.35;49.90;;;10.00;85.90;;;;;;12705733;28;20028;-70
2023/12/25 20:51:55;;;;;;;53.70;47.65;;;10.20;85.50;;;;;;12705400;28;20359;-71
2023/12/25 20:57:57;;;;;;;67.53;60.58;;;10.00;85.60;;;;;;12696926;28;20028;-71
2023/12/25 21:04:00;;;;;;;49.13;44.08;;;10.10;85.70;;;;;;12706945;28;20039;-71
2023/12/25 21:10:02;;;;;;;52.42;47.20;;;10.00;85.50;;;;;;12686762;28;20037;-73
2023/12/25 21:16:06;;;;;;;61.42;55.58;;;9.90;85.80;;;;;;12686590;28;20023;-73
2023/12/25 21:22:27;;;;;;;58.60;52.38;;;10.00;86.00;;;;;;12704561;28;20042;-73
2023/12/25 21:28:29;;;;;;;54.20;49.28;;;9.90;85.80;;;;;;12672679;28;20036;-73
2023/12/25 21:34:30;;;;;;;45.72;41.47;;;10.00;85.70;;;;;;12714831;28;20036;-73
2023/12/25 21:40:32;;;;;;;68.60;61.63;;;9.90;86.00;;;;;;12714534;28;20058;-73
2023/12/25 21:46:34;;;;;;;62.20;56.30;;;10.10;85.90;;;;;;12714299;28;20348;-73
2023/12/25 21:52:36;;;;;;;64.85;58.58;;;10.40;85.50;;;;;;12713903;28;20039;-73
2023/12/25 21:58:38;;;;;;;55.08;49.38;;;10.50;85.20;;;;;;12713533;28;20027;-73
2023/12/25 22:04:39;;;;;;;61.80;56.10;;;10.30;85.20;;;;;;12713321;28;20047;-73
2023/12/25 22:10:44;;;;;;;65.88;59.88;;;10.30;85.30;;;;;;12694841;28;20042;-73
2023/12/25 22:16:48;;;;;;;64.95;58.45;;;10.50;85.30;;;;;;12712753;28;20034;-73
2023/12/25 22:22:50;;;;;;;77.03;70.63;;;10.60;85.40;;;;;;12694321;28;20043;-73
2023/12/25 22:28:54;;;;;;;76.63;70.07;;;10.60;85.40;;;;;;12694122;28;20459;-73
2023/12/25 22:34:59;;;;;;;72.85;66.78;;;10.50;85.30;;;;;;12711931;28;20030;-71
2023/12/25 22:41:16;;;;;;;91.32;84.20;;;10.20;85.60;;;;;;12692304;28;20042;-70
2023/12/25 22:47:18;;;;;;;74.43;67.13;;;10.30;85.90;;;;;;12693364;28;20426;-71
2023/12/25 22:53:21;;;;;;;83.00;75.20;;;10.50;86.10;;;;;;12692621;28;20373;-71
2023/12/25 22:59:23;;;;;;;86.88;79.85;;;10.60;85.80;;;;;;12680628;22;20448;-71
2023/12/25 23:05:26;;;;;;;86.60;79.03;;;10.60;85.60;;;;;;12658581;28;20356;-70
2023/12/25 23:11:28;;;;;;;90.30;82.82;;;10.70;85.60;;;;;;12659450;28;20032;-71
2023/12/25 23:17:30;;;;;;;69.82;63.90;;;10.70;85.50;;;;;;12658164;28;20048;-71
2023/12/25 23:23:31;;;;;;;78.72;72.35;;;10.50;85.40;;;;;;12657772;28;20024;-73
2023/12/25 23:29:33;;;;;;;71.55;65.65;;;10.20;85.90;;;;;;12658648;28;20035;-73
2023/12/25 23:35:38;;;;;;;45.85;41.00;;;10.20;85.90;;;;;;12657647;28;20036;-73
2023/12/25 23:41:40;;;;;;;51.55;46.55;;;10.00;86.00;;;;;;12657978;28;20078;-73
2023/12/25 23:47:41;;;;;;;89.53;82.38;;;9.80;86.30;;;;;;12657779;28;20341;-73
2023/12/25 23:53:43;;;;;;;83.72;77.25;;;9.90;86.40;;;;;;12657068;28;20036;-73
2023/12/25 23:59:45;;;;;;;67.75;61.25;;;10.00;86.10;;;;;;12657094;28;20338;-73
